sensor_id;sensor_type;location;lat;lon;timestamp;P1;durP1;ratioP1;P2;durP2;ratioP2
8654;SDS011;13500;52.514;13.462;2023-01-06T00:00:07;5.93;;;2.50;;
8654;SDS011;13500;52.514;13.462;2023-01-06T00:02:37;6.10;;;2.50;;
8654;SDS011;13500;52.514;13.462;2023-01-06T00:05:05;6.73;;;3.27;;
8654;SDS011;13500;52.514;13.462;2023-01-06T00:07:35;6.13;;;3.23;;
8654;SDS011;13500;52.514;13.462;2023-01-06T00:10:03;7.43;;;2.87;;
8654;SDS011;13500;52.514;13.462;2023-01-06T00:12:32;4.90;;;2.63;;
8654;SDS011;13500;52.514;13.462;2023-01-06T00:15:00;6.57;;;2.50;;
8654;SDS011;13500;52.514;13.462;2023-01-06T00:17:30;4.43;;;2.37;;
8654;SDS011;13500;52.514;13.462;2023-01-06T00:19:58;7.20;;;2.90;;
8654;SDS011;13500;52.514;13.462;2023-01-06T00:22:26;7.60;;;3.67;;
8654;SDS011;13500;52.514;13.462;2023-01-06T00:24:55;7.07;;;3.10;;
8654;SDS011;13500;52.514;13.462;2023-01-06T00:27:23;5.43;;;3.10;;
8654;SDS011;13500;52.514;13.462;2023-01-06T00:29:52;6.13;;;2.53;;
8654;SDS011;13500;52.514;13.462;2023-01-06T00:32:23;7.13;;;3.10;;
8654;SDS011;13500;52.514;13.462;2023-01-06T00:34:51;9.13;;;3.10;;
8654;SDS011;13500;52.514;13.462;2023-01-06T00:37:20;7.07;;;3.33;;
8654;SDS011;13500;52.514;13.462;2023-01-06T00:39:50;7.70;;;3.37;;
8654;SDS011;13500;52.514;13.462;2023-01-06T00:42:19;9.87;;;2.80;;
8654;SDS011;13500;52.514;13.462;2023-01-06T00:44:48;5.07;;;2.27;;
8654;SDS011;13500;52.514;13.462;2023-01-06T00:47:18;5.60;;;2.80;;
8654;SDS011;13500;52.514;13.462;2023-01-06T00:49:46;5.93;;;2.10;;
8654;SDS011;13500;52.514;13.462;2023-01-06T00:52:14;4.57;;;2.20;;
8654;SDS011;13500;52.514;13.462;2023-01-06T00:54:43;5.20;;;2.23;;
8654;SDS011;13500;52.514;13.462;2023-01-06T00:57:12;6.90;;;3.07;;
8654;SDS011;13500;52.514;13.462;2023-01-06T00:59:41;7.10;;;2.70;;
8654;SDS011;13500;52.514;13.462;2023-01-06T01:02:09;4.77;;;2.37;;
8654;SDS011;13500;52.514;13.462;2023-01-06T01:04:39;8.40;;;2.63;;
8654;SDS011;13500;52.514;13.462;2023-01-06T01:07:08;7.50;;;2.37;;
8654;SDS011;13500;52.514;13.462;2023-01-06T01:09:38;7.13;;;3.10;;
8654;SDS011;13500;52.514;13.462;2023-01-06T01:12:06;6.87;;;2.73;;
8654;SDS011;13500;52.514;13.462;2023-01-06T01:14:42;5.03;;;2.60;;
8654;SDS011;13500;52.514;13.462;2023-01-06T01:17:13;6.70;;;2.60;;
8654;SDS011;13500;52.514;13.462;2023-01-06T01:19:42;6.37;;;2.40;;
8654;SDS011;13500;52.514;13.462;2023-01-06T01:22:10;6.83;;;2.43;;
8654;SDS011;13500;52.514;13.462;2023-01-06T01:24:39;6.40;;;2.67;;
8654;SDS011;13500;52.514;13.462;2023-01-06T01:27:11;5.73;;;2.70;;
8654;SDS011;13500;52.514;13.462;2023-01-06T01:29:39;4.87;;;2.10;;
8654;SDS011;13500;52.514;13.462;2023-01-06T01:32:08;4.10;;;2.30;;
8654;SDS011;13500;52.514;13.462;2023-01-06T01:34:37;4.03;;;2.10;;
8654;SDS011;13500;52.514;13.462;2023-01-06T01:37:05;5.73;;;2.37;;
8654;SDS011;13500;52.514;13.462;2023-01-06T01:39:33;5.73;;;2.63;;
8654;SDS011;13500;52.514;13.462;2023-01-06T01:42:03;5.30;;;2.77;;
8654;SDS011;13500;52.514;13.462;2023-01-06T01:47:39;7.17;;;2.67;;
8654;SDS011;13500;52.514;13.462;2023-01-06T01:50:12;6.47;;;2.67;;
8654;SDS011;13500;52.514;13.462;2023-01-06T01:52:44;4.20;;;2.47;;
8654;SDS011;13500;52.514;13.462;2023-01-06T01:55:14;6.33;;;2.70;;
8654;SDS011;13500;52.514;13.462;2023-01-06T01:57:44;3.73;;;2.33;;
8654;SDS011;13500;52.514;13.462;2023-01-06T02:00:16;6.67;;;2.33;;
8654;SDS011;13500;52.514;13.462;2023-01-06T02:02:46;4.33;;;2.40;;
8654;SDS011;13500;52.514;13.462;2023-01-06T02:05:15;5.17;;;2.30;;
8654;SDS011;13500;52.514;13.462;2023-01-06T02:07:46;5.40;;;2.33;;
8654;SDS011;13500;52.514;13.462;2023-01-06T02:10:16;5.17;;;2.00;;
8654;SDS011;13500;52.514;13.462;2023-01-06T02:12:48;5.37;;;2.57;;
8654;SDS011;13500;52.514;13.462;2023-01-06T02:15:19;5.67;;;2.20;;
8654;SDS011;13500;52.514;13.462;2023-01-06T02:17:59;5.77;;;2.07;;
8654;SDS011;13500;52.514;13.462;2023-01-06T02:21:03;3.03;;;1.67;;
8654;SDS011;13500;52.514;13.462;2023-01-06T02:30:22;3.00;;;1.70;;
8654;SDS011;13500;52.514;13.462;2023-01-06T02:33:17;4.17;;;1.63;;
8654;SDS011;13500;52.514;13.462;2023-01-06T02:35:53;6.20;;;2.00;;
8654;SDS011;13500;52.514;13.462;2023-01-06T02:41:20;3.53;;;1.73;;
8654;SDS011;13500;52.514;13.462;2023-01-06T02:43:56;5.50;;;1.77;;
8654;SDS011;13500;52.514;13.462;2023-01-06T02:49:27;4.00;;;1.90;;
8654;SDS011;13500;52.514;13.462;2023-01-06T02:51:59;4.83;;;1.80;;
8654;SDS011;13500;52.514;13.462;2023-01-06T02:54:42;4.90;;;1.77;;
8654;SDS011;13500;52.514;13.462;2023-01-06T02:57:19;4.53;;;1.60;;
8654;SDS011;13500;52.514;13.462;2023-01-06T02:59:55;4.83;;;2.10;;
8654;SDS011;13500;52.514;13.462;2023-01-06T03:02:32;4.07;;;1.70;;
8654;SDS011;13500;52.514;13.462;2023-01-06T03:05:02;2.77;;;1.57;;
8654;SDS011;13500;52.514;13.462;2023-01-06T03:07:32;3.57;;;1.50;;
8654;SDS011;13500;52.514;13.462;2023-01-06T03:10:01;4.37;;;2.03;;
8654;SDS011;13500;52.514;13.462;2023-01-06T03:12:34;4.87;;;2.00;;
8654;SDS011;13500;52.514;13.462;2023-01-06T03:15:07;4.67;;;2.10;;
8654;SDS011;13500;52.514;13.462;2023-01-06T03:17:35;2.77;;;1.70;;
8654;SDS011;13500;52.514;13.462;2023-01-06T03:20:06;4.23;;;1.70;;
8654;SDS011;13500;52.514;13.462;2023-01-06T03:22:36;3.67;;;1.90;;
8654;SDS011;13500;52.514;13.462;2023-01-06T03:25:07;5.43;;;1.80;;
8654;SDS011;13500;52.514;13.462;2023-01-06T03:27:37;3.67;;;1.83;;
8654;SDS011;13500;52.514;13.462;2023-01-06T03:30:07;4.80;;;1.87;;
8654;SDS011;13500;52.514;13.462;2023-01-06T03:32:40;3.70;;;1.60;;
8654;SDS011;13500;52.514;13.462;2023-01-06T03:38:14;4.20;;;1.60;;
8654;SDS011;13500;52.514;13.462;2023-01-06T03:40:50;4.50;;;1.60;;
8654;SDS011;13500;52.514;13.462;2023-01-06T03:43:24;4.17;;;1.67;;
8654;SDS011;13500;52.514;13.462;2023-01-06T03:45:55;2.40;;;1.57;;
8654;SDS011;13500;52.514;13.462;2023-01-06T03:48:31;2.60;;;1.60;;
8654;SDS011;13500;52.514;13.462;2023-01-06T03:51:06;3.67;;;1.60;;
8654;SDS011;13500;52.514;13.462;2023-01-06T03:53:40;5.93;;;1.90;;
8654;SDS011;13500;52.514;13.462;2023-01-06T03:56:15;3.27;;;1.63;;
8654;SDS011;13500;52.514;13.462;2023-01-06T03:58:46;3.67;;;1.67;;
8654;SDS011;13500;52.514;13.462;2023-01-06T04:01:17;4.03;;;1.80;;
8654;SDS011;13500;52.514;13.462;2023-01-06T04:03:46;3.50;;;1.40;;
8654;SDS011;13500;52.514;13.462;2023-01-06T04:06:16;3.37;;;1.80;;
8654;SDS011;13500;52.514;13.462;2023-01-06T04:08:46;3.67;;;1.60;;
8654;SDS011;13500;52.514;13.462;2023-01-06T04:11:15;4.27;;;1.53;;
8654;SDS011;13500;52.514;13.462;2023-01-06T04:13:58;4.20;;;1.70;;
8654;SDS011;13500;52.514;13.462;2023-01-06T04:16:27;3.07;;;1.73;;
8654;SDS011;13500;52.514;13.462;2023-01-06T04:18:56;4.37;;;1.63;;
8654;SDS011;13500;52.514;13.462;2023-01-06T04:21:25;4.20;;;1.60;;
8654;SDS011;13500;52.514;13.462;2023-01-06T04:23:56;3.00;;;1.23;;
8654;SDS011;13500;52.514;13.462;2023-01-06T04:26:24;4.80;;;1.83;;
8654;SDS011;13500;52.514;13.462;2023-01-06T04:28:52;4.20;;;1.53;;
8654;SDS011;13500;52.514;13.462;2023-01-06T04:31:22;5.77;;;2.17;;
8654;SDS011;13500;52.514;13.462;2023-01-06T04:33:54;3.00;;;1.50;;
8654;SDS011;13500;52.514;13.462;2023-01-06T04:36:24;3.67;;;1.67;;
8654;SDS011;13500;52.514;13.462;2023-01-06T04:38:55;4.90;;;1.67;;
8654;SDS011;13500;52.514;13.462;2023-01-06T04:41:23;5.00;;;1.63;;
8654;SDS011;13500;52.514;13.462;2023-01-06T04:43:51;3.87;;;1.93;;
8654;SDS011;13500;52.514;13.462;2023-01-06T04:46:22;4.73;;;1.90;;
8654;SDS011;13500;52.514;13.462;2023-01-06T04:48:51;4.77;;;1.60;;
8654;SDS011;13500;52.514;13.462;2023-01-06T04:51:19;4.43;;;1.63;;
8654;SDS011;13500;52.514;13.462;2023-01-06T04:53:48;5.47;;;1.80;;
8654;SDS011;13500;52.514;13.462;2023-01-06T04:56:17;4.43;;;1.63;;
8654;SDS011;13500;52.514;13.462;2023-01-06T04:58:45;2.97;;;1.57;;
8654;SDS011;13500;52.514;13.462;2023-01-06T05:01:14;5.80;;;2.03;;
8654;SDS011;13500;52.514;13.462;2023-01-06T05:03:43;4.33;;;2.20;;
8654;SDS011;13500;52.514;13.462;2023-01-06T05:06:12;4.30;;;2.20;;
8654;SDS011;13500;52.514;13.462;2023-01-06T05:08:41;5.07;;;1.70;;
8654;SDS011;13500;52.514;13.462;2023-01-06T05:11:10;5.63;;;1.70;;
8654;SDS011;13500;52.514;13.462;2023-01-06T05:13:41;7.20;;;1.70;;
8654;SDS011;13500;52.514;13.462;2023-01-06T05:16:10;4.57;;;1.50;;
8654;SDS011;13500;52.514;13.462;2023-01-06T05:18:39;3.70;;;1.63;;
8654;SDS011;13500;52.514;13.462;2023-01-06T05:21:07;4.33;;;1.67;;
8654;SDS011;13500;52.514;13.462;2023-01-06T05:23:35;4.30;;;1.60;;
8654;SDS011;13500;52.514;13.462;2023-01-06T05:26:05;6.03;;;1.57;;
8654;SDS011;13500;52.514;13.462;2023-01-06T05:28:34;2.40;;;1.70;;
8654;SDS011;13500;52.514;13.462;2023-01-06T05:31:04;4.23;;;2.00;;
8654;SDS011;13500;52.514;13.462;2023-01-06T05:33:33;3.80;;;2.00;;
8654;SDS011;13500;52.514;13.462;2023-01-06T05:36:03;4.77;;;2.50;;
8654;SDS011;13500;52.514;13.462;2023-01-06T05:38:33;5.30;;;2.30;;
8654;SDS011;13500;52.514;13.462;2023-01-06T05:41:01;5.03;;;1.63;;
8654;SDS011;13500;52.514;13.462;2023-01-06T05:43:31;4.43;;;1.57;;
8654;SDS011;13500;52.514;13.462;2023-01-06T05:46:04;5.03;;;2.00;;
8654;SDS011;13500;52.514;13.462;2023-01-06T05:48:33;5.53;;;1.77;;
8654;SDS011;13500;52.514;13.462;2023-01-06T05:51:01;3.70;;;2.10;;
8654;SDS011;13500;52.514;13.462;2023-01-06T05:53:30;6.30;;;2.00;;
8654;SDS011;13500;52.514;13.462;2023-01-06T05:56:00;3.80;;;1.80;;
8654;SDS011;13500;52.514;13.462;2023-01-06T05:58:29;5.90;;;2.00;;
8654;SDS011;13500;52.514;13.462;2023-01-06T06:00:59;5.60;;;2.20;;
8654;SDS011;13500;52.514;13.462;2023-01-06T06:03:28;6.10;;;2.10;;
8654;SDS011;13500;52.514;13.462;2023-01-06T06:06:00;8.77;;;2.00;;
8654;SDS011;13500;52.514;13.462;2023-01-06T06:08:33;8.80;;;3.07;;
8654;SDS011;13500;52.514;13.462;2023-01-06T06:11:01;6.23;;;2.90;;
8654;SDS011;13500;52.514;13.462;2023-01-06T06:13:31;3.87;;;1.90;;
8654;SDS011;13500;52.514;13.462;2023-01-06T06:16:04;5.70;;;2.20;;
8654;SDS011;13500;52.514;13.462;2023-01-06T06:18:35;6.67;;;2.93;;
8654;SDS011;13500;52.514;13.462;2023-01-06T06:21:09;6.70;;;2.60;;
8654;SDS011;13500;52.514;13.462;2023-01-06T06:23:38;6.17;;;2.10;;
8654;SDS011;13500;52.514;13.462;2023-01-06T06:26:06;8.47;;;2.93;;
8654;SDS011;13500;52.514;13.462;2023-01-06T06:28:36;6.27;;;2.60;;
8654;SDS011;13500;52.514;13.462;2023-01-06T06:31:05;6.03;;;2.57;;
8654;SDS011;13500;52.514;13.462;2023-01-06T06:33:35;5.63;;;2.40;;
8654;SDS011;13500;52.514;13.462;2023-01-06T06:36:05;5.13;;;2.67;;
8654;SDS011;13500;52.514;13.462;2023-01-06T06:38:37;7.27;;;3.20;;
8654;SDS011;13500;52.514;13.462;2023-01-06T06:41:08;8.10;;;3.20;;
8654;SDS011;13500;52.514;13.462;2023-01-06T06:43:37;7.93;;;3.97;;
8654;SDS011;13500;52.514;13.462;2023-01-06T06:46:06;10.17;;;3.40;;
8654;SDS011;13500;52.514;13.462;2023-01-06T06:48:36;9.00;;;4.13;;
8654;SDS011;13500;52.514;13.462;2023-01-06T06:51:05;13.17;;;4.13;;
8654;SDS011;13500;52.514;13.462;2023-01-06T06:53:37;10.30;;;3.37;;
8654;SDS011;13500;52.514;13.462;2023-01-06T06:56:06;15.17;;;4.60;;
8654;SDS011;13500;52.514;13.462;2023-01-06T06:58:37;11.20;;;3.60;;
8654;SDS011;13500;52.514;13.462;2023-01-06T07:01:06;11.17;;;4.40;;
8654;SDS011;13500;52.514;13.462;2023-01-06T07:03:40;13.20;;;5.30;;
8654;SDS011;13500;52.514;13.462;2023-01-06T07:06:09;13.73;;;5.03;;
8654;SDS011;13500;52.514;13.462;2023-01-06T07:08:41;12.50;;;4.47;;
8654;SDS011;13500;52.514;13.462;2023-01-06T07:11:09;9.00;;;3.57;;
8654;SDS011;13500;52.514;13.462;2023-01-06T07:13:38;13.33;;;5.50;;
8654;SDS011;13500;52.514;13.462;2023-01-06T07:16:06;17.30;;;6.63;;
8654;SDS011;13500;52.514;13.462;2023-01-06T07:18:35;9.13;;;5.33;;
8654;SDS011;13500;52.514;13.462;2023-01-06T07:21:05;13.50;;;5.53;;
8654;SDS011;13500;52.514;13.462;2023-01-06T07:23:33;8.97;;;4.33;;
8654;SDS011;13500;52.514;13.462;2023-01-06T07:26:02;8.97;;;4.13;;
8654;SDS011;13500;52.514;13.462;2023-01-06T07:28:31;9.60;;;4.60;;
8654;SDS011;13500;52.514;13.462;2023-01-06T07:31:01;11.00;;;4.77;;
8654;SDS011;13500;52.514;13.462;2023-01-06T07:33:29;11.33;;;4.33;;
8654;SDS011;13500;52.514;13.462;2023-01-06T07:35:58;9.30;;;4.40;;
8654;SDS011;13500;52.514;13.462;2023-01-06T07:38:28;9.37;;;4.80;;
8654;SDS011;13500;52.514;13.462;2023-01-06T07:40:58;7.33;;;4.73;;
8654;SDS011;13500;52.514;13.462;2023-01-06T07:43:28;11.20;;;5.63;;
8654;SDS011;13500;52.514;13.462;2023-01-06T07:45:56;11.20;;;5.30;;
8654;SDS011;13500;52.514;13.462;2023-01-06T07:48:24;12.07;;;5.20;;
8654;SDS011;13500;52.514;13.462;2023-01-06T07:50:53;9.33;;;4.90;;
8654;SDS011;13500;52.514;13.462;2023-01-06T07:53:22;9.90;;;5.23;;
8654;SDS011;13500;52.514;13.462;2023-01-06T07:55:53;10.57;;;5.47;;
8654;SDS011;13500;52.514;13.462;2023-01-06T07:58:21;13.03;;;5.90;;
8654;SDS011;13500;52.514;13.462;2023-01-06T08:00:50;12.67;;;5.63;;
8654;SDS011;13500;52.514;13.462;2023-01-06T08:03:19;11.60;;;6.10;;
8654;SDS011;13500;52.514;13.462;2023-01-06T08:05:47;12.23;;;6.53;;
8654;SDS011;13500;52.514;13.462;2023-01-06T08:08:16;11.97;;;6.77;;
8654;SDS011;13500;52.514;13.462;2023-01-06T08:10:44;10.43;;;6.63;;
8654;SDS011;13500;52.514;13.462;2023-01-06T08:13:18;14.40;;;6.57;;
8654;SDS011;13500;52.514;13.462;2023-01-06T08:15:47;12.67;;;6.60;;
8654;SDS011;13500;52.514;13.462;2023-01-06T08:18:17;10.13;;;7.03;;
8654;SDS011;13500;52.514;13.462;2023-01-06T08:20:46;12.03;;;7.10;;
8654;SDS011;13500;52.514;13.462;2023-01-06T08:23:14;10.97;;;6.90;;
8654;SDS011;13500;52.514;13.462;2023-01-06T08:25:42;12.07;;;6.97;;
8654;SDS011;13500;52.514;13.462;2023-01-06T08:28:10;16.77;;;7.80;;
8654;SDS011;13500;52.514;13.462;2023-01-06T08:30:40;11.67;;;7.80;;
8654;SDS011;13500;52.514;13.462;2023-01-06T08:33:09;16.33;;;8.33;;
8654;SDS011;13500;52.514;13.462;2023-01-06T08:35:38;11.50;;;8.10;;
8654;SDS011;13500;52.514;13.462;2023-01-06T08:38:05;18.93;;;8.87;;
8654;SDS011;13500;52.514;13.462;2023-01-06T08:40:35;14.33;;;8.67;;
8654;SDS011;13500;52.514;13.462;2023-01-06T08:43:06;13.30;;;8.30;;
8654;SDS011;13500;52.514;13.462;2023-01-06T08:45:36;19.37;;;9.00;;
8654;SDS011;13500;52.514;13.462;2023-01-06T08:48:06;14.27;;;9.00;;
8654;SDS011;13500;52.514;13.462;2023-01-06T08:50:36;14.03;;;9.70;;
8654;SDS011;13500;52.514;13.462;2023-01-06T08:53:06;18.77;;;10.17;;
8654;SDS011;13500;52.514;13.462;2023-01-06T08:55:36;17.77;;;9.53;;
8654;SDS011;13500;52.514;13.462;2023-01-06T08:58:07;16.03;;;9.47;;
8654;SDS011;13500;52.514;13.462;2023-01-06T09:00:38;17.07;;;10.70;;
8654;SDS011;13500;52.514;13.462;2023-01-06T09:03:10;16.77;;;11.10;;
8654;SDS011;13500;52.514;13.462;2023-01-06T09:05:39;15.80;;;10.43;;
8654;SDS011;13500;52.514;13.462;2023-01-06T09:08:07;16.70;;;10.63;;
8654;SDS011;13500;52.514;13.462;2023-01-06T09:10:36;15.40;;;10.80;;
8654;SDS011;13500;52.514;13.462;2023-01-06T09:13:04;18.83;;;11.47;;
8654;SDS011;13500;52.514;13.462;2023-01-06T09:15:32;17.57;;;11.27;;
8654;SDS011;13500;52.514;13.462;2023-01-06T09:18:01;21.63;;;11.57;;
8654;SDS011;13500;52.514;13.462;2023-01-06T09:20:31;27.53;;;16.57;;
8654;SDS011;13500;52.514;13.462;2023-01-06T09:23:00;23.50;;;14.23;;
8654;SDS011;13500;52.514;13.462;2023-01-06T09:25:28;21.20;;;12.57;;
8654;SDS011;13500;52.514;13.462;2023-01-06T09:27:56;18.97;;;11.80;;
8654;SDS011;13500;52.514;13.462;2023-01-06T09:30:25;19.90;;;11.07;;
8654;SDS011;13500;52.514;13.462;2023-01-06T09:32:53;27.17;;;16.23;;
8654;SDS011;13500;52.514;13.462;2023-01-06T09:35:21;60.80;;;31.67;;
8654;SDS011;13500;52.514;13.462;2023-01-06T09:37:52;27.47;;;17.53;;
8654;SDS011;13500;52.514;13.462;2023-01-06T09:40:21;34.80;;;19.37;;
8654;SDS011;13500;52.514;13.462;2023-01-06T09:42:56;31.43;;;20.77;;
8654;SDS011;13500;52.514;13.462;2023-01-06T09:45:33;19.17;;;12.50;;
8654;SDS011;13500;52.514;13.462;2023-01-06T09:48:05;18.33;;;11.63;;
8654;SDS011;13500;52.514;13.462;2023-01-06T09:50:39;22.10;;;12.00;;
8654;SDS011;13500;52.514;13.462;2023-01-06T09:53:12;19.03;;;11.87;;
8654;SDS011;13500;52.514;13.462;2023-01-06T09:55:43;16.57;;;12.87;;
8654;SDS011;13500;52.514;13.462;2023-01-06T09:58:14;20.47;;;13.00;;
8654;SDS011;13500;52.514;13.462;2023-01-06T10:00:44;20.07;;;12.90;;
8654;SDS011;13500;52.514;13.462;2023-01-06T10:03:14;17.57;;;12.53;;
8654;SDS011;13500;52.514;13.462;2023-01-06T10:05:47;21.97;;;13.23;;
8654;SDS011;13500;52.514;13.462;2023-01-06T10:08:32;19.50;;;12.57;;
8654;SDS011;13500;52.514;13.462;2023-01-06T10:11:07;23.27;;;13.87;;
8654;SDS011;13500;52.514;13.462;2023-01-06T10:13:42;21.77;;;12.80;;
8654;SDS011;13500;52.514;13.462;2023-01-06T10:16:19;19.10;;;12.13;;
8654;SDS011;13500;52.514;13.462;2023-01-06T10:18:55;15.93;;;12.03;;
8654;SDS011;13500;52.514;13.462;2023-01-06T10:21:26;18.97;;;12.17;;
8654;SDS011;13500;52.514;13.462;2023-01-06T10:24:07;16.73;;;11.83;;
8654;SDS011;13500;52.514;13.462;2023-01-06T10:26:42;14.87;;;11.40;;
8654;SDS011;13500;52.514;13.462;2023-01-06T10:29:14;17.10;;;11.70;;
8654;SDS011;13500;52.514;13.462;2023-01-06T10:31:46;16.80;;;11.83;;
8654;SDS011;13500;52.514;13.462;2023-01-06T10:34:16;22.67;;;12.40;;
8654;SDS011;13500;52.514;13.462;2023-01-06T10:36:52;18.73;;;12.13;;
8654;SDS011;13500;52.514;13.462;2023-01-06T10:39:24;17.97;;;12.77;;
8654;SDS011;13500;52.514;13.462;2023-01-06T10:41:55;23.97;;;12.97;;
8654;SDS011;13500;52.514;13.462;2023-01-06T10:44:42;14.83;;;11.37;;
8654;SDS011;13500;52.514;13.462;2023-01-06T10:47:12;20.43;;;12.37;;
8654;SDS011;13500;52.514;13.462;2023-01-06T10:49:41;15.10;;;11.53;;
8654;SDS011;13500;52.514;13.462;2023-01-06T10:52:09;18.57;;;12.00;;
8654;SDS011;13500;52.514;13.462;2023-01-06T10:54:41;20.57;;;12.27;;
8654;SDS011;13500;52.514;13.462;2023-01-06T10:57:10;15.63;;;12.33;;
8654;SDS011;13500;52.514;13.462;2023-01-06T11:02:35;17.47;;;11.27;;
8654;SDS011;13500;52.514;13.462;2023-01-06T11:05:11;19.00;;;12.33;;
8654;SDS011;13500;52.514;13.462;2023-01-06T11:07:44;14.57;;;12.43;;
8654;SDS011;13500;52.514;13.462;2023-01-06T11:10:29;13.90;;;10.97;;
8654;SDS011;13500;52.514;13.462;2023-01-06T11:12:59;16.13;;;11.27;;
8654;SDS011;13500;52.514;13.462;2023-01-06T11:15:29;14.77;;;10.80;;
8654;SDS011;13500;52.514;13.462;2023-01-06T11:18:02;14.27;;;10.87;;
8654;SDS011;13500;52.514;13.462;2023-01-06T11:20:33;15.40;;;11.03;;
8654;SDS011;13500;52.514;13.462;2023-01-06T11:23:11;14.37;;;11.17;;
8654;SDS011;13500;52.514;13.462;2023-01-06T11:25:42;13.30;;;11.10;;
8654;SDS011;13500;52.514;13.462;2023-01-06T11:28:13;14.13;;;10.83;;
8654;SDS011;13500;52.514;13.462;2023-01-06T11:30:47;14.47;;;11.40;;
8654;SDS011;13500;52.514;13.462;2023-01-06T11:33:18;13.40;;;11.33;;
8654;SDS011;13500;52.514;13.462;2023-01-06T11:35:48;16.80;;;11.67;;
8654;SDS011;13500;52.514;13.462;2023-01-06T11:38:17;13.03;;;11.00;;
8654;SDS011;13500;52.514;13.462;2023-01-06T11:40:49;14.37;;;11.13;;
8654;SDS011;13500;52.514;13.462;2023-01-06T11:43:19;13.93;;;11.10;;
8654;SDS011;13500;52.514;13.462;2023-01-06T11:45:52;15.80;;;11.77;;
8654;SDS011;13500;52.514;13.462;2023-01-06T11:48:24;14.00;;;11.90;;
8654;SDS011;13500;52.514;13.462;2023-01-06T11:50:56;15.33;;;11.87;;
8654;SDS011;13500;52.514;13.462;2023-01-06T11:53:26;15.97;;;14.07;;
8654;SDS011;13500;52.514;13.462;2023-01-06T11:55:57;39.13;;;32.67;;
8654;SDS011;13500;52.514;13.462;2023-01-06T11:58:31;15.57;;;12.27;;
8654;SDS011;13500;52.514;13.462;2023-01-06T12:01:11;16.40;;;10.60;;
8654;SDS011;13500;52.514;13.462;2023-01-06T12:03:43;12.80;;;10.10;;
8654;SDS011;13500;52.514;13.462;2023-01-06T12:06:17;12.73;;;9.63;;
8654;SDS011;13500;52.514;13.462;2023-01-06T12:08:52;12.10;;;9.50;;
8654;SDS011;13500;52.514;13.462;2023-01-06T12:11:28;19.53;;;13.60;;
8654;SDS011;13500;52.514;13.462;2023-01-06T12:14:02;15.67;;;11.43;;
8654;SDS011;13500;52.514;13.462;2023-01-06T12:16:54;12.40;;;10.47;;
8654;SDS011;13500;52.514;13.462;2023-01-06T12:19:30;39.23;;;24.07;;
8654;SDS011;13500;52.514;13.462;2023-01-06T12:22:00;17.03;;;11.60;;
8654;SDS011;13500;52.514;13.462;2023-01-06T12:24:28;24.73;;;15.33;;
8654;SDS011;13500;52.514;13.462;2023-01-06T12:27:01;19.93;;;12.20;;
8654;SDS011;13500;52.514;13.462;2023-01-06T12:29:30;45.33;;;25.13;;
8654;SDS011;13500;52.514;13.462;2023-01-06T12:32:02;33.07;;;18.30;;
8654;SDS011;13500;52.514;13.462;2023-01-06T12:34:36;14.47;;;10.50;;
8654;SDS011;13500;52.514;13.462;2023-01-06T12:37:09;24.83;;;15.53;;
8654;SDS011;13500;52.514;13.462;2023-01-06T12:39:46;41.10;;;20.00;;
8654;SDS011;13500;52.514;13.462;2023-01-06T12:42:24;19.37;;;12.33;;
8654;SDS011;13500;52.514;13.462;2023-01-06T12:44:56;17.17;;;10.37;;
8654;SDS011;13500;52.514;13.462;2023-01-06T12:47:30;24.93;;;14.40;;
8654;SDS011;13500;52.514;13.462;2023-01-06T12:50:02;14.47;;;9.73;;
8654;SDS011;13500;52.514;13.462;2023-01-06T12:52:34;16.00;;;11.40;;
8654;SDS011;13500;52.514;13.462;2023-01-06T12:55:07;22.80;;;13.70;;
8654;SDS011;13500;52.514;13.462;2023-01-06T12:57:46;18.10;;;12.03;;
8654;SDS011;13500;52.514;13.462;2023-01-06T13:00:25;13.37;;;9.13;;
8654;SDS011;13500;52.514;13.462;2023-01-06T13:03:08;10.77;;;7.67;;
8654;SDS011;13500;52.514;13.462;2023-01-06T13:05:57;8.63;;;6.40;;
8654;SDS011;13500;52.514;13.462;2023-01-06T13:08:33;14.47;;;8.60;;
8654;SDS011;13500;52.514;13.462;2023-01-06T13:11:15;9.43;;;6.77;;
8654;SDS011;13500;52.514;13.462;2023-01-06T13:13:52;6.90;;;5.57;;
8654;SDS011;13500;52.514;13.462;2023-01-06T13:16:25;6.83;;;5.00;;
8654;SDS011;13500;52.514;13.462;2023-01-06T13:18:59;6.50;;;4.97;;
8654;SDS011;13500;52.514;13.462;2023-01-06T13:21:35;7.67;;;5.00;;
8654;SDS011;13500;52.514;13.462;2023-01-06T13:24:10;5.10;;;4.60;;
8654;SDS011;13500;52.514;13.462;2023-01-06T13:26:54;6.77;;;4.57;;
8654;SDS011;13500;52.514;13.462;2023-01-06T13:29:38;5.43;;;4.00;;
8654;SDS011;13500;52.514;13.462;2023-01-06T13:38:02;5.17;;;3.30;;
8654;SDS011;13500;52.514;13.462;2023-01-06T13:40:38;4.50;;;3.50;;
8654;SDS011;13500;52.514;13.462;2023-01-06T13:43:09;5.47;;;3.43;;
8654;SDS011;13500;52.514;13.462;2023-01-06T13:45:43;10.93;;;9.60;;
8654;SDS011;13500;52.514;13.462;2023-01-06T13:48:14;4.17;;;2.63;;
8654;SDS011;13500;52.514;13.462;2023-01-06T13:50:43;2.47;;;2.27;;
8654;SDS011;13500;52.514;13.462;2023-01-06T13:53:14;2.93;;;2.50;;
8654;SDS011;13500;52.514;13.462;2023-01-06T13:55:44;4.10;;;2.77;;
8654;SDS011;13500;52.514;13.462;2023-01-06T14:01:06;3.50;;;2.50;;
8654;SDS011;13500;52.514;13.462;2023-01-06T14:03:36;2.60;;;2.37;;
8654;SDS011;13500;52.514;13.462;2023-01-06T14:06:09;4.40;;;2.20;;
8654;SDS011;13500;52.514;13.462;2023-01-06T14:08:38;4.37;;;2.87;;
8654;SDS011;13500;52.514;13.462;2023-01-06T14:11:26;4.00;;;2.40;;
8654;SDS011;13500;52.514;13.462;2023-01-06T14:13:56;2.67;;;1.83;;
8654;SDS011;13500;52.514;13.462;2023-01-06T14:19:15;3.97;;;2.33;;
8654;SDS011;13500;52.514;13.462;2023-01-06T14:21:45;3.80;;;2.57;;
8654;SDS011;13500;52.514;13.462;2023-01-06T14:24:19;4.37;;;2.50;;
8654;SDS011;13500;52.514;13.462;2023-01-06T14:26:51;3.07;;;2.00;;
8654;SDS011;13500;52.514;13.462;2023-01-06T14:35:16;3.80;;;2.00;;
8654;SDS011;13500;52.514;13.462;2023-01-06T14:37:46;3.87;;;2.00;;
8654;SDS011;13500;52.514;13.462;2023-01-06T14:40:19;2.93;;;1.70;;
8654;SDS011;13500;52.514;13.462;2023-01-06T14:42:50;2.67;;;2.00;;
8654;SDS011;13500;52.514;13.462;2023-01-06T14:45:20;2.70;;;1.83;;
8654;SDS011;13500;52.514;13.462;2023-01-06T14:47:52;3.50;;;1.70;;
8654;SDS011;13500;52.514;13.462;2023-01-06T14:50:25;3.67;;;1.97;;
8654;SDS011;13500;52.514;13.462;2023-01-06T14:53:12;2.50;;;1.90;;
8654;SDS011;13500;52.514;13.462;2023-01-06T14:55:45;2.30;;;1.50;;
8654;SDS011;13500;52.514;13.462;2023-01-06T14:58:26;2.93;;;1.90;;
8654;SDS011;13500;52.514;13.462;2023-01-06T15:00:57;3.73;;;2.10;;
8654;SDS011;13500;52.514;13.462;2023-01-06T15:03:29;4.17;;;2.03;;
8654;SDS011;13500;52.514;13.462;2023-01-06T15:06:10;3.30;;;2.57;;
8654;SDS011;13500;52.514;13.462;2023-01-06T15:08:43;2.23;;;2.00;;
8654;SDS011;13500;52.514;13.462;2023-01-06T15:11:17;2.53;;;2.10;;
8654;SDS011;13500;52.514;13.462;2023-01-06T15:13:48;3.43;;;2.43;;
8654;SDS011;13500;52.514;13.462;2023-01-06T15:16:18;2.57;;;2.07;;
8654;SDS011;13500;52.514;13.462;2023-01-06T15:18:50;3.87;;;2.47;;
8654;SDS011;13500;52.514;13.462;2023-01-06T15:21:22;4.70;;;3.00;;
8654;SDS011;13500;52.514;13.462;2023-01-06T15:23:51;4.73;;;2.87;;
8654;SDS011;13500;52.514;13.462;2023-01-06T15:26:22;23.20;;;20.80;;
8654;SDS011;13500;52.514;13.462;2023-01-06T15:28:59;4.00;;;2.80;;
8654;SDS011;13500;52.514;13.462;2023-01-06T15:31:32;5.33;;;2.50;;
8654;SDS011;13500;52.514;13.462;2023-01-06T15:34:02;6.37;;;3.13;;
8654;SDS011;13500;52.514;13.462;2023-01-06T15:36:35;4.87;;;2.73;;
8654;SDS011;13500;52.514;13.462;2023-01-06T15:39:04;2.40;;;2.20;;
8654;SDS011;13500;52.514;13.462;2023-01-06T15:41:32;3.83;;;2.33;;